Time;durP1;ratioP1;P1;durP2;ratioP2;P2;SDS_P1;SDS_P2;PMS_P1;PMS_P2;Temp;Humidity;BMP_temperature;BMP_pressure;BME280_temperature;BME280_humidity;BME280_pressure;Samples;Min_cycle;Max_cycle;Signal;HPM_P1;HPM_P2
2022/01/28 00:05:15;;;;;;;3.28;2.75;;;;;;;;;;5061761;28;20040;-71
2022/01/28 00:07:40;;;;;;;;;;;;;;;;;;5060457;28;20040;-70
2022/01/28 00:10:06;;;;;;;2.70;2.50;;;;;;;;;;5061562;28;19916;-70
2022/01/28 00:12:33;;;;;;;1.60;1.50;;;;;;;;;;5061827;28;20036;-70
2022/01/28 00:15:07;;;;;;;3.17;2.08;;;;;;;;;;5061725;28;20085;-71
2022/01/28 00:38:54;;;;;;;4.05;3.65;;;;;;;;;;5061418;28;20078;-71
2022/01/28 00:41:20;;;;;;;3.17;2.88;;;;;;;;;;5060550;28;20036;-71
2022/01/28 00:43:45;;;;;;;3.30;2.85;;;;;;;;;;5061570;28;20719;-71
2022/01/28 00:46:11;;;;;;;3.90;3.15;;;;;;;;;;5061075;28;20036;-71
2022/01/28 00:48:37;;;;;;;9.02;3.05;;;;;;;;;;5061912;28;20124;-73
2022/01/28 00:51:03;;;;;;;4.85;3.30;;;;;;;;;;5060949;28;20071;-71
2022/01/28 00:53:28;;;;;;;7.60;5.10;;;;;;;;;;5061561;28;20072;-71
2022/01/28 00:55:54;;;;;;;3.55;3.20;;;;;;;;;;5061036;28;20036;-71
2022/01/28 00:58:21;;;;;;;4.70;3.92;;;;;;;;;;5061244;28;20036;-71
2022/01/28 01:00:46;;;;;;;4.35;3.63;;;;;;;;;;5061454;28;20086;-71
2022/01/28 01:03:11;;;;;;;5.03;4.47;;;;;;;;;;5060397;28;20952;-71
2022/01/28 01:05:37;;;;;;;5.97;3.65;;;;;;;;;;5061434;28;20032;-71
2022/01/28 01:08:04;;;;;;;4.65;3.75;;;;;;;;;;5061098;28;20444;-71
2022/01/28 01:10:31;;;;;;;5.65;5.05;;;;;;;;;;5061196;28;20035;-71
2022/01/28 01:12:57;;;;;;;6.15;5.03;;;;;;;;;;5059943;28;20090;-71
2022/01/28 01:15:26;;;;;;;5.50;4.53;;;;;;;;;;5060947;28;20032;-71
2022/01/28 01:23:05;;;;;;;3.30;2.80;;;;;;;;;;5061062;28;20320;-71
2022/01/28 01:25:33;;;;;;;5.40;3.80;;;;;;;;;;5059399;28;20037;-71
2022/01/28 01:27:58;;;;;;;5.35;4.40;;;;;;;;;;5061339;28;20382;-71
2022/01/28 01:30:27;;;;;;;3.00;2.67;;;;;;;;;;5060643;28;20962;-70
2022/01/28 01:32:53;;;;;;;4.82;3.63;;;;;;;;;;5060904;28;20049;-70
2022/01/28 01:35:19;;;;;;;5.60;5.07;;;;;;;;;;5059128;28;20055;-71
2022/01/28 01:37:44;;;;;;;7.50;4.50;;;;;;;;;;5060540;28;20040;-70
2022/01/28 01:40:10;;;;;;;5.65;4.30;;;;;;;;;;5060897;28;20036;-71
2022/01/28 01:42:51;;;;;;;8.07;4.32;;;;;;;;;;5061117;28;20771;-70
2022/01/28 01:53:26;;;;;;;6.45;4.07;;;;;;;;;;5060592;28;20512;-70
2022/01/28 01:55:51;;;;;;;4.00;3.60;;;;;;;;;;5060790;28;20044;-70
2022/01/28 01:58:24;;;;;;;6.15;5.43;;;;;;;;;;5059978;28;20677;-71
2022/01/28 02:00:50;;;;;;;4.18;3.78;;;;;;;;;;5060375;28;20040;-70
2022/01/28 02:03:15;;;;;;;4.43;4.03;;;;;;;;;;5061145;28;20044;-70
2022/01/28 02:05:41;;;;;;;6.53;4.70;;;;;;;;;;5060744;28;20044;-70
2022/01/28 02:08:06;;;;;;;7.35;5.63;;;;;;;;;;5059949;28;20033;-70
2022/01/28 02:10:33;;;;;;;4.20;3.80;;;;;;;;;;5061331;28;20047;-70
2022/01/28 02:12:59;;;;;;;6.00;5.18;;;;;;;;;;5065473;28;20385;-70
2022/01/28 02:15:24;;;;;;;7.10;6.00;;;;;;;;;;5064050;28;20547;-70
2022/01/28 02:17:50;;;;;;;8.52;5.80;;;;;;;;;;5064208;28;20047;-70
2022/01/28 02:20:32;;;;;;;6.53;3.88;;;;;;;;;;5062822;28;20400;-71
2022/01/28 02:22:58;;;;;;;6.93;4.32;;;;;;;;;;5063832;28;20037;-71
2022/01/28 02:25:26;;;;;;;9.05;4.85;;;;;;;;;;5063990;28;20515;-70
2022/01/28 02:27:54;;;;;;;5.47;3.97;;;;;;;;;;5063766;28;20079;-70
2022/01/28 02:30:20;;;;;;;7.70;6.05;;;;;;;;;;5061792;28;20036;-70
2022/01/28 02:32:48;;;;;;;7.55;5.70;;;;;;;;;;5063724;28;20032;-70
2022/01/28 02:35:13;;;;;;;7.80;5.80;;;;;;;;;;5063773;28;20040;-70
2022/01/28 02:37:39;;;;;;;5.00;4.35;;;;;;;;;;5063696;28;20052;-70
2022/01/28 02:40:06;;;;;;;8.30;3.70;;;;;;;;;;5063570;28;20032;-70
2022/01/28 02:42:48;;;;;;;3.28;2.97;;;;;;;;;;5063184;28;20107;-71
2022/01/28 02:45:24;;;;;;;6.55;3.90;;;;;;;;;;5063626;28;20408;-71
2022/01/28 02:47:55;;;;;;;4.93;3.45;;;;;;;;;;5064034;28;20032;-73
2022/01/28 02:50:20;;;;;;;5.30;4.72;;;;;;;;;;5063628;28;20043;-71
2022/01/28 02:53:01;;;;;;;5.18;4.32;;;;;;;;;;5058957;28;20028;-70
2022/01/28 02:55:26;;;;;;;5.30;3.80;;;;;;;;;;5063474;28;20044;-71
2022/01/28 02:58:03;;;;;;;5.72;3.33;;;;;;;;;;5063214;28;20024;-70
2022/01/28 03:00:29;;;;;;;6.20;5.13;;;;;;;;;;5063563;28;20028;-71
2022/01/28 03:02:54;;;;;;;6.57;3.83;;;;;;;;;;5062419;28;20508;-70
2022/01/28 03:05:52;;;;;;;8.38;6.68;;;;;;;;;;5062493;28;20405;-71
2022/01/28 03:08:12;;;;;;;6.32;5.03;;;;;;;;;;5061963;28;20139;-70
2022/01/28 03:15:33;;;;;;;6.65;4.00;;;;;;;;;;5063113;28;20040;-69
2022/01/28 03:18:12;;;;;;;7.30;5.28;;;;;;;;;;5062844;28;20105;-70
2022/01/28 03:20:55;;;;;;;7.32;4.47;;;;;;;;;;5063134;28;20102;-70
2022/01/28 03:23:20;;;;;;;6.10;3.92;;;;;;;;;;5061813;28;20055;-70
2022/01/28 03:25:47;;;;;;;12.20;6.47;;;;;;;;;;5062306;28;20036;-71
2022/01/28 03:28:15;;;;;;;6.95;5.38;;;;;;;;;;5063103;28;20052;-72
2022/01/28 03:30:41;;;;;;;9.35;5.10;;;;;;;;;;5062913;28;20040;-73
2022/01/28 03:33:06;;;;;;;6.97;4.75;;;;;;;;;;5062758;28;20040;-70
2022/01/28 03:35:34;;;;;;;9.32;7.03;;;;;;;;;;5062151;28;20043;-75
2022/01/28 03:38:01;;;;;;;6.63;3.58;;;;;;;;;;5062458;28;20477;-74
2022/01/28 03:40:28;;;;;;;6.68;4.43;;;;;;;;;;5062427;28;20043;-70
2022/01/28 03:42:54;;;;;;;6.88;4.95;;;;;;;;;;5062337;28;20044;-72
2022/01/28 03:45:19;;;;;;;7.20;4.55;;;;;;;;;;5062988;28;20036;-71
2022/01/28 03:47:45;;;;;;;2.97;2.67;;;;;;;;;;5062006;28;20507;-76
2022/01/28 03:50:10;;;;;;;5.38;2.95;;;;;;;;;;5062360;28;20036;-71
2022/01/28 03:52:36;;;;;;;5.38;4.07;;;;;;;;;;5062169;28;20032;-73
2022/01/28 03:55:02;;;;;;;9.18;3.97;;;;;;;;;;5062751;28;20089;-70
2022/01/28 03:57:28;;;;;;;7.15;4.43;;;;;;;;;;5061261;28;20032;-74
2022/01/28 03:59:53;;;;;;;8.13;4.53;;;;;;;;;;5062349;28;20563;-71
2022/01/28 04:02:22;;;;;;;7.30;4.75;;;;;;;;;;5062491;28;20453;-69
2022/01/28 04:12:47;;;;;;;4.00;3.60;;;;;;;;;;5062112;28;20040;-72
2022/01/28 04:17:51;;;;;;;5.47;4.32;;;;;;;;;;5061929;28;20127;-72
2022/01/28 04:20:16;;;;;;;5.38;4.22;;;;;;;;;;5060899;28;20036;-70
2022/01/28 04:22:42;;;;;;;8.38;5.25;;;;;;;;;;5062006;28;20029;-70
2022/01/28 04:25:08;;;;;;;6.03;3.50;;;;;;;;;;5061843;28;20032;-74
2022/01/28 04:27:33;;;;;;;6.80;4.68;;;;;;;;;;5061836;28;20515;-72
2022/01/28 04:29:58;;;;;;;8.13;4.53;;;;;;;;;;5061633;28;20064;-73
2022/01/28 04:32:26;;;;;;;5.30;3.47;;;;;;;;;;5076603;28;20068;-72
2022/01/28 04:34:54;;;;;;;5.10;3.78;;;;;;;;;;5060324;28;20040;-70
2022/01/28 04:42:25;;;;;;;6.55;3.92;;;;;;;;;;5060863;28;20045;-71
2022/01/28 04:45:09;;;;;;;8.07;5.70;;;;;;;;;;5061445;28;20040;-71
2022/01/28 04:58:43;;;;;;;4.13;3.67;;;;;;;;;;5061196;28;20029;-71
2022/01/28 05:10:53;;;;;;;7.45;5.05;;;;;;;;;;5061151;28;20047;-75
2022/01/28 05:24:22;;;;;;;3.63;2.63;;;;;;;;;;5038503;28;20726;-71
2022/01/28 05:27:04;;;;;;;5.93;4.20;;;;;;;;;;5052988;28;20118;-71
2022/01/28 05:29:30;;;;;;;7.32;3.83;;;;;;;;;;5057916;28;20032;-73
2022/01/28 05:31:56;;;;;;;9.80;4.38;;;;;;;;;;5060275;28;20059;-71
2022/01/28 05:34:27;;;;;;;5.90;3.97;;;;;;;;;;5060924;28;21183;-71
2022/01/28 05:36:53;;;;;;;4.63;3.87;;;;;;;;;;5059677;28;20045;-71
2022/01/28 05:39:19;;;;;;;4.75;4.07;;;;;;;;;;5061109;28;20040;-71
2022/01/28 05:41:45;;;;;;;6.68;5.78;;;;;;;;;;5061154;28;20047;-71
2022/01/28 05:44:10;;;;;;;5.10;4.32;;;;;;;;;;5060917;28;20028;-70
2022/01/28 05:46:36;;;;;;;7.85;4.18;;;;;;;;;;5063225;28;20126;-71
2022/01/28 05:49:02;;;;;;;6.47;4.85;;;;;;;;;;5061681;28;20024;-71
2022/01/28 05:51:27;;;;;;;5.85;3.88;;;;;;;;;;5063517;28;20792;-71
2022/01/28 05:53:59;;;;;;;5.35;3.20;;;;;;;;;;5064019;28;20024;-71
2022/01/28 05:56:26;;;;;;;3.00;2.65;;;;;;;;;;5039104;28;20481;-71
2022/01/28 05:58:52;;;;;;;4.32;3.60;;;;;;;;;;5062144;28;20126;-72
2022/01/28 06:01:18;;;;;;;5.00;3.72;;;;;;;;;;5063577;28;20056;-72
2022/01/28 06:03:44;;;;;;;5.18;4.00;;;;;;;;;;5065053;28;20048;-70
2022/01/28 06:06:21;;;;;;;7.65;4.60;;;;;;;;;;5066584;28;20037;-73
2022/01/28 06:08:55;;;;;;;5.18;3.75;;;;;;;;;;5065226;28;20028;-71
2022/01/28 06:11:22;;;;;;;8.00;5.20;;;;;;;;;;5062222;28;20070;-72
2022/01/28 06:13:48;;;;;;;13.25;4.13;;;;;;;;;;5077215;28;20036;-73
2022/01/28 06:16:15;;;;;;;9.38;6.28;;;;;;;;;;5067103;28;20039;-73
2022/01/28 06:18:42;;;;;;;8.48;5.35;;;;;;;;;;5064041;28;20040;-71
2022/01/28 06:21:08;;;;;;;5.18;3.85;;;;;;;;;;5063354;28;20044;-72
2022/01/28 06:23:33;;;;;;;8.20;4.65;;;;;;;;;;5064477;28;20033;-72
2022/01/28 06:25:59;;;;;;;7.68;4.03;;;;;;;;;;5064133;28;20033;-72
2022/01/28 06:28:25;;;;;;;3.38;3.08;;;;;;;;;;5061318;28;20033;-73
2022/01/28 06:30:52;;;;;;;12.95;6.40;;;;;;;;;;5061140;28;21004;-73
2022/01/28 06:33:17;;;;;;;6.13;4.50;;;;;;;;;;5061155;28;20036;-73
2022/01/28 06:35:44;;;;;;;7.80;4.75;;;;;;;;;;5061309;28;20067;-72
2022/01/28 06:38:10;;;;;;;5.43;3.60;;;;;;;;;;5061572;28;20082;-73
2022/01/28 06:40:36;;;;;;;5.90;3.55;;;;;;;;;;5062243;28;20096;-74
2022/01/28 06:43:03;;;;;;;8.52;5.10;;;;;;;;;;5061556;28;21104;-73
2022/01/28 06:45:28;;;;;;;6.95;4.97;;;;;;;;;;5063892;28;20035;-73
2022/01/28 06:47:53;;;;;;;7.28;4.90;;;;;;;;;;5064025;28;20039;-72
2022/01/28 06:50:19;;;;;;;7.90;5.25;;;;;;;;;;5063531;28;20186;-73
2022/01/28 06:52:44;;;;;;;5.63;3.70;;;;;;;;;;5064036;28;20040;-73
2022/01/28 06:55:14;;;;;;;7.85;4.05;;;;;;;;;;5062805;28;20836;-73
2022/01/28 06:57:40;;;;;;;6.85;3.53;;;;;;;;;;5062219;28;20079;-73
2022/01/28 07:00:07;;;;;;;4.57;3.67;;;;;;;;;;5062314;28;20028;-72
2022/01/28 07:02:33;;;;;;;6.07;4.75;;;;;;;;;;5060542;28;20032;-72
2022/01/28 07:04:59;;;;;;;9.13;4.57;;;;;;;;;;5062170;28;20035;-72
2022/01/28 07:07:26;;;;;;;7.88;4.50;;;;;;;;;;5062821;28;20036;-73
2022/01/28 07:09:52;;;;;;;3.95;2.50;;;;;;;;;;5062826;28;20051;-70
2022/01/28 07:12:18;;;;;;;6.75;4.32;;;;;;;;;;5062748;28;20543;-70
2022/01/28 07:14:44;;;;;;;8.15;3.67;;;;;;;;;;5062325;28;20569;-70
2022/01/28 07:17:10;;;;;;;7.15;4.47;;;;;;;;;;5060705;28;20037;-70
2022/01/28 07:19:36;;;;;;;8.15;5.25;;;;;;;;;;5061818;28;20036;-70
2022/01/28 07:22:01;;;;;;;9.27;3.95;;;;;;;;;;5061401;28;20024;-70
2022/01/28 07:24:27;;;;;;;5.60;3.65;;;;;;;;;;5061624;28;20405;-69
2022/01/28 07:26:52;;;;;;;8.55;4.07;;;;;;;;;;5059894;28;20041;-69
2022/01/28 07:29:19;;;;;;;7.07;3.92;;;;;;;;;;5061719;28;20036;-70
2022/01/28 07:31:44;;;;;;;2.95;2.10;;;;;;;;;;5063750;28;20047;-70
2022/01/28 07:34:10;;;;;;;6.32;4.43;;;;;;;;;;5063842;28;20036;-70
2022/01/28 07:36:39;;;;;;;3.97;3.50;;;;;;;;;;5063278;28;20096;-69
2022/01/28 07:39:06;;;;;;;8.15;4.72;;;;;;;;;;5060101;28;20127;-72
2022/01/28 07:41:33;;;;;;;8.25;4.05;;;;;;;;;;5061566;28;20151;-72
2022/01/28 07:43:59;;;;;;;2.80;2.50;;;;;;;;;;5063075;28;20461;-74
2022/01/28 07:46:24;;;;;;;5.20;4.07;;;;;;;;;;5063058;28;20044;-73
2022/01/28 07:48:50;;;;;;;7.88;4.57;;;;;;;;;;5063073;28;20028;-72
2022/01/28 07:51:16;;;;;;;7.30;4.38;;;;;;;;;;5062115;28;20135;-73
2022/01/28 07:53:42;;;;;;;9.05;5.30;;;;;;;;;;5062454;28;20091;-73
2022/01/28 07:56:08;;;;;;;6.40;5.05;;;;;;;;;;5061980;28;20071;-73
2022/01/28 07:58:33;;;;;;;5.15;4.35;;;;;;;;;;5062361;28;20596;-71
2022/01/28 08:00:59;;;;;;;7.97;4.57;;;;;;;;;;5060986;28;20081;-72
2022/01/28 08:03:24;;;;;;;4.80;4.10;;;;;;;;;;5062457;28;20040;-73
2022/01/28 08:05:50;;;;;;;6.45;5.25;;;;;;;;;;5062163;28;20468;-75
2022/01/28 08:08:19;;;;;;;9.85;7.03;;;;;;;;;;5051453;28;20040;-75
2022/01/28 08:10:46;;;;;;;7.65;5.93;;;;;;;;;;5060708;28;20037;-75
2022/01/28 08:13:12;;;;;;;10.90;6.57;;;;;;;;;;5060877;28;20040;-73
2022/01/28 08:15:40;;;;;;;8.55;6.03;;;;;;;;;;5061946;28;21064;-73
2022/01/28 08:18:09;;;;;;;8.35;5.20;;;;;;;;;;5061620;28;20044;-73
2022/01/28 08:20:34;;;;;;;8.05;6.65;;;;;;;;;;5060646;28;20407;-73
2022/01/28 08:23:01;;;;;;;6.47;4.45;;;;;;;;;;5060573;28;20041;-74
2022/01/28 08:25:29;;;;;;;9.95;6.13;;;;;;;;;;5061220;28;20860;-74
2022/01/28 08:27:55;;;;;;;11.82;7.15;;;;;;;;;;5061349;28;20037;-74
2022/01/28 08:30:24;;;;;;;6.95;5.15;;;;;;;;;;5061746;28;20032;-74
2022/01/28 08:32:50;;;;;;;5.95;4.53;;;;;;;;;;5061064;28;20033;-73
2022/01/28 08:35:17;;;;;;;16.05;6.35;;;;;;;;;;5061877;28;20136;-70
2022/01/28 08:37:43;;;;;;;10.52;5.63;;;;;;;;;;5060957;28;20043;-72
2022/01/28 08:40:12;;;;;;;7.68;6.13;;;;;;;;;;5061147;28;20064;-73
2022/01/28 08:42:38;;;;;;;8.50;4.80;;;;;;;;;;5043639;28;20036;-73
2022/01/28 08:45:04;;;;;;;10.18;4.72;;;;;;;;;;5058978;28;20032;-71
2022/01/28 08:47:30;;;;;;;4.13;3.30;;;;;;;;;;5061719;28;20051;-72
2022/01/28 08:49:55;;;;;;;13.52;5.90;;;;;;;;;;5061620;28;20032;-72
2022/01/28 08:52:21;;;;;;;8.18;6.60;;;;;;;;;;5061226;28;20051;-71
2022/01/28 08:54:46;;;;;;;9.38;5.20;;;;;;;;;;5060997;28;20036;-72
2022/01/28 08:57:12;;;;;;;3.90;3.50;;;;;;;;;;5061030;28;20040;-71
2022/01/28 08:59:39;;;;;;;4.00;3.38;;;;;;;;;;5061203;28;20137;-72
2022/01/28 09:02:05;;;;;;;6.35;3.17;;;;;;;;;;5060455;28;20036;-73
2022/01/28 09:04:31;;;;;;;10.10;6.13;;;;;;;;;;5061141;28;20044;-72
2022/01/28 09:06:56;;;;;;;6.28;5.13;;;;;;;;;;5060097;28;20047;-71
2022/01/28 09:09:22;;;;;;;9.35;4.63;;;;;;;;;;5060778;28;20044;-73
2022/01/28 09:12:19;;;;;;;7.45;4.45;;;;;;;;;;5060971;28;20051;-72
2022/01/28 09:14:45;;;;;;;7.53;4.93;;;;;;;;;;5059615;28;20044;-71
2022/01/28 09:17:12;;;;;;;4.78;4.22;;;;;;;;;;5060368;28;20042;-71
2022/01/28 09:19:37;;;;;;;7.05;4.78;;;;;;;;;;5060460;28;20060;-72
2022/01/28 09:22:03;;;;;;;8.38;3.88;;;;;;;;;;5063939;28;20075;-72
2022/01/28 09:24:28;;;;;;;5.30;4.20;;;;;;;;;;5065543;28;20041;-72
2022/01/28 09:26:55;;;;;;;7.20;3.80;;;;;;;;;;5064941;28;20119;-72
2022/01/28 09:29:22;;;;;;;4.45;3.63;;;;;;;;;;5064277;28;20098;-73
2022/01/28 09:31:49;;;;;;;5.38;3.58;;;;;;;;;;5064767;28;20040;-72
2022/01/28 09:34:14;;;;;;;7.10;3.15;;;;;;;;;;5063571;28;20033;-73
2022/01/28 09:36:40;;;;;;;8.45;4.15;;;;;;;;;;5064786;28;20059;-70
2022/01/28 09:39:07;;;;;;;2.25;2.08;;;;;;;;;;5062708;28;20123;-71
2022/01/28 09:41:35;;;;;;;4.88;3.65;;;;;;;;;;5064861;28;20040;-71
2022/01/28 09:44:02;;;;;;;6.70;3.22;;;;;;;;;;5065133;28;20036;-71
2022/01/28 09:46:28;;;;;;;4.82;3.30;;;;;;;;;;5062263;28;20875;-72
2022/01/28 09:48:55;;;;;;;4.45;2.95;;;;;;;;;;5064447;28;20119;-71
2022/01/28 09:51:21;;;;;;;3.90;3.08;;;;;;;;;;5062276;28;20040;-72
2022/01/28 09:53:47;;;;;;;7.63;4.32;;;;;;;;;;5063632;28;20090;-72
2022/01/28 09:56:12;;;;;;;3.30;3.00;;;;;;;;;;5064350;28;20040;-72
2022/01/28 09:58:38;;;;;;;7.03;3.90;;;;;;;;;;5064550;28;20401;-71
2022/01/28 10:01:04;;;;;;;4.18;2.58;;;;;;;;;;5062364;28;20036;-71
2022/01/28 10:03:29;;;;;;;5.18;3.60;;;;;;;;;;5064171;28;20113;-72
2022/01/28 10:05:57;;;;;;;5.55;3.90;;;;;;;;;;5064086;28;20050;-72
2022/01/28 10:08:24;;;;;;;3.40;2.55;;;;;;;;;;5079032;28;20036;-72
2022/01/28 10:11:08;;;;;;;4.65;3.95;;;;;;;;;;5064113;28;20489;-72
2022/01/28 10:13:41;;;;;;;4.35;2.88;;;;;;;;;;5063339;28;20572;-72
2022/01/28 10:16:10;;;;;;;7.25;2.65;;;;;;;;;;5062556;28;20504;-73
2022/01/28 10:18:35;;;;;;;4.43;3.33;;;;;;;;;;5063261;28;20032;-72
2022/01/28 10:21:01;;;;;;;6.45;2.70;;;;;;;;;;5063710;28;20043;-71
2022/01/28 10:23:26;;;;;;;3.30;3.00;;;;;;;;;;5063443;28;20047;-71
2022/01/28 10:26:00;;;;;;;2.67;2.30;;;;;;;;;;5064111;28;20657;-72
2022/01/28 10:28:26;;;;;;;6.15;3.03;;;;;;;;;;5063841;28;20032;-72
2022/01/28 10:30:51;;;;;;;7.13;2.97;;;;;;;;;;5063650;28;20043;-71
2022/01/28 10:33:20;;;;;;;4.93;3.45;;;;;;;;;;5063683;28;20020;-71
2022/01/28 10:35:54;;;;;;;6.35;4.45;;;;;;;;;;5063941;28;20052;-71
2022/01/28 10:38:31;;;;;;;3.22;2.33;;;;;;;;;;5062107;28;20044;-71
2022/01/28 10:41:09;;;;;;;4.40;3.10;;;;;;;;;;5063195;28;20029;-71
2022/01/28 10:43:54;;;;;;;5.50;2.72;;;;;;;;;;5063843;28;20050;-72
2022/01/28 10:46:24;;;;;;;10.75;3.35;;;;;;;;;;5062433;28;20040;-71
2022/01/28 10:48:53;;;;;;;3.58;2.88;;;;;;;;;;5062835;28;20460;-72
2022/01/28 10:51:21;;;;;;;6.03;3.42;;;;;;;;;;5062922;28;20032;-73
2022/01/28 10:54:20;;;;;;;2.08;1.67;;;;;;;;;;5060557;28;20928;-72
2022/01/28 10:56:53;;;;;;;3.67;2.67;;;;;;;;;;5033511;28;20047;-73
2022/01/28 10:59:21;;;;;;;7.70;3.10;;;;;;;;;;5061682;28;20097;-72
2022/01/28 11:01:47;;;;;;;4.85;3.30;;;;;;;;;;5061501;28;20198;-72
2022/01/28 11:04:15;;;;;;;6.28;2.20;;;;;;;;;;5061879;28;20027;-74
2022/01/28 11:06:42;;;;;;;5.53;2.85;;;;;;;;;;5059959;28;20059;-72
2022/01/28 11:09:09;;;;;;;3.92;3.13;;;;;;;;;;5061256;28;20150;-74
2022/01/28 11:11:35;;;;;;;3.40;2.47;;;;;;;;;;5061759;28;20121;-74
2022/01/28 11:14:02;;;;;;;7.25;2.78;;;;;;;;;;5063108;28;20036;-74
2022/01/28 11:16:28;;;;;;;9.27;3.45;;;;;;;;;;5061779;28;20156;-74
2022/01/28 11:18:56;;;;;;;2.90;2.42;;;;;;;;;;5061985;28;20085;-75
2022/01/28 11:22:10;;;;;;;3.20;1.90;;;;;;;;;;5063339;28;20039;-74
2022/01/28 11:25:06;;;;;;;5.22;2.50;;;;;;;;;;5021930;28;20059;-72
2022/01/28 11:27:34;;;;;;;6.47;3.30;;;;;;;;;;5063402;28;20989;-72
2022/01/28 11:30:22;;;;;;;5.20;3.03;;;;;;;;;;5059847;28;20098;-72
2022/01/28 11:32:54;;;;;;;4.60;3.33;;;;;;;;;;5061659;28;20040;-73
2022/01/28 11:35:21;;;;;;;2.70;2.15;;;;;;;;;;5054267;28;20052;-73
2022/01/28 11:37:47;;;;;;;8.32;3.95;;;;;;;;;;5062905;28;20493;-73
2022/01/28 11:40:15;;;;;;;3.55;2.88;;;;;;;;;;5061619;28;20036;-73
2022/01/28 11:42:41;;;;;;;4.38;2.85;;;;;;;;;;5061682;28;20036;-72
2022/01/28 11:45:09;;;;;;;2.92;2.00;;;;;;;;;;5060940;28;20193;-73
2022/01/28 11:47:40;;;;;;;1.55;1.45;;;;;;;;;;5062565;28;20460;-72
2022/01/28 11:50:17;;;;;;;3.65;2.42;;;;;;;;;;5062528;28;20122;-73
2022/01/28 11:52:45;;;;;;;9.45;3.08;;;;;;;;;;5062214;28;20055;-73
2022/01/28 11:55:14;;;;;;;3.35;2.25;;;;;;;;;;5062505;28;20370;-73
2022/01/28 11:57:49;;;;;;;2.20;2.00;;;;;;;;;;5062363;28;20436;-71
2022/01/28 12:00:43;;;;;;;6.63;2.35;;;;;;;;;;5060881;28;20479;-75
2022/01/28 12:03:21;;;;;;;3.55;2.30;;;;;;;;;;5060651;28;20109;-74
2022/01/28 12:05:46;;;;;;;1.88;1.35;;;;;;;;;;5062120;28;20040;-73
2022/01/28 12:08:14;;;;;;;5.15;2.03;;;;;;;;;;5060541;28;20039;-73
2022/01/28 12:10:43;;;;;;;5.25;2.95;;;;;;;;;;5061296;28;20893;-73
2022/01/28 12:13:16;;;;;;;3.40;1.90;;;;;;;;;;5061060;28;20135;-73
2022/01/28 12:18:43;;;;;;;8.18;2.10;;;;;;;;;;5077292;28;20151;-73
2022/01/28 12:21:15;;;;;;;2.53;1.77;;;;;;;;;;5061762;28;20036;-74
2022/01/28 12:23:41;;;;;;;2.17;1.80;;;;;;;;;;5076596;28;20028;-72
2022/01/28 12:26:07;;;;;;;4.32;2.22;;;;;;;;;;5062103;28;20485;-71
2022/01/28 12:28:32;;;;;;;2.75;2.10;;;;;;;;;;5062132;28;20047;-73
2022/01/28 12:30:58;;;;;;;4.68;1.83;;;;;;;;;;5061578;28;20036;-73
2022/01/28 12:33:26;;;;;;;2.10;1.48;;;;;;;;;;5061745;28;20040;-72
2022/01/28 12:35:55;;;;;;;2.33;2.13;;;;;;;;;;5059878;28;20044;-72
2022/01/28 12:38:25;;;;;;;4.15;2.40;;;;;;;;;;5059695;28;20098;-73
2022/01/28 12:40:53;;;;;;;2.58;1.83;;;;;;;;;;5061180;28;20025;-72
2022/01/28 12:43:21;;;;;;;1.50;1.38;;;;;;;;;;5061560;28;20052;-72
2022/01/28 12:45:57;;;;;;;4.13;1.65;;;;;;;;;;5060895;28;20803;-74
2022/01/28 12:48:23;;;;;;;5.55;2.15;;;;;;;;;;5061804;28;20032;-74
2022/01/28 12:50:52;;;;;;;4.00;1.77;;;;;;;;;;5061621;28;20140;-72
2022/01/28 12:53:55;;;;;;;8.65;2.72;;;;;;;;;;5052203;28;20032;-71
2022/01/28 12:56:30;;;;;;;;;;;;;;;;;;5059926;28;20032;-72
2022/01/28 12:58:56;;;;;;;2.50;1.48;;;;;;;;;;5060986;28;20839;-72
2022/01/28 13:01:22;;;;;;;1.83;1.48;;;;;;;;;;5061207;28;20036;-72
2022/01/28 13:04:02;;;;;;;5.10;1.88;;;;;;;;;;5061535;28;20040;-70
2022/01/28 13:09:09;;;;;;;3.80;2.47;;;;;;;;;;5060117;28;20032;-71
2022/01/28 13:11:44;;;;;;;8.68;3.53;;;;;;;;;;5060616;28;20048;-71
2022/01/28 13:14:11;;;;;;;1.55;1.45;;;;;;;;;;5061116;28;20055;-71
2022/01/28 13:16:41;;;;;;;3.90;1.58;;;;;;;;;;5056282;28;20105;-74
2022/01/28 13:19:09;;;;;;;2.17;1.50;;;;;;;;;;5058297;28;20032;-74
2022/01/28 13:21:35;;;;;;;1.55;1.33;;;;;;;;;;5057569;28;20123;-73
2022/01/28 13:24:20;;;;;;;1.70;1.58;;;;;;;;;;5058487;28;20120;-73
2022/01/28 13:27:03;;;;;;;6.05;1.95;;;;;;;;;;5056336;28;20127;-74
2022/01/28 13:29:33;;;;;;;4.68;1.42;;;;;;;;;;5055668;28;20761;-75
2022/01/28 13:32:04;;;;;;;3.05;1.05;;;;;;;;;;5056943;28;20166;-73
2022/01/28 13:34:47;;;;;;;2.10;1.10;;;;;;;;;;5058373;28;20037;-74
2022/01/28 13:37:38;;;;;;;3.40;1.80;;;;;;;;;;5056276;28;20041;-74
2022/01/28 13:40:07;;;;;;;1.25;0.88;;;;;;;;;;5056873;28;20052;-73
2022/01/28 13:42:33;;;;;;;3.30;1.98;;;;;;;;;;5056777;28;20116;-71
2022/01/28 13:45:04;;;;;;;2.58;1.80;;;;;;;;;;5060650;28;20155;-74
2022/01/28 13:47:52;;;;;;;2.65;1.40;;;;;;;;;;5059982;28;20105;-73
2022/01/28 13:50:42;;;;;;;7.70;2.33;;;;;;;;;;5059771;28;20032;-74
2022/01/28 13:56:07;;;;;;;1.80;1.35;;;;;;;;;;5059709;28;20497;-74
2022/01/28 13:58:42;;;;;;;3.60;1.33;;;;;;;;;;5059430;28;20041;-76
2022/01/28 14:01:09;;;;;;;3.22;2.28;;;;;;;;;;5059741;28;20043;-75
2022/01/28 14:03:49;;;;;;;1.15;1.05;;;;;;;;;;5059860;28;20036;-74
2022/01/28 14:06:20;;;;;;;4.40;2.40;;;;;;;;;;5059149;28;20058;-75
2022/01/28 14:08:51;;;;;;;3.47;2.08;;;;;;;;;;5056560;28;20901;-74
2022/01/28 14:11:35;;;;;;;3.50;1.80;;;;;;;;;;5063079;28;20082;-74
2022/01/28 14:14:28;;;;;;;3.00;1.92;;;;;;;;;;5061285;28;20665;-73
2022/01/28 14:16:56;;;;;;;3.05;1.70;;;;;;;;;;5061706;28;20134;-75
2022/01/28 14:19:23;;;;;;;1.35;1.25;;;;;;;;;;5062653;28;20511;-74
2022/01/28 14:21:49;;;;;;;1.02;1.00;;;;;;;;;;5063058;28;20708;-75
2022/01/28 14:24:20;;;;;;;3.15;1.40;;;;;;;;;;5061659;28;20032;-74
2022/01/28 14:26:57;;;;;;;5.82;1.75;;;;;;;;;;5062226;28;20033;-72
2022/01/28 14:32:19;;;;;;;1.77;1.27;;;;;;;;;;5061171;28;20853;-75
2022/01/28 14:34:48;;;;;;;0.93;0.93;;;;;;;;;;5063041;28;20452;-75
2022/01/28 14:37:14;;;;;;;4.50;1.42;;;;;;;;;;5061342;28;20448;-76
2022/01/28 14:39:40;;;;;;;1.50;1.10;;;;;;;;;;5062899;28;20036;-75
2022/01/28 14:42:08;;;;;;;3.10;1.40;;;;;;;;;;5044592;28;20081;-75
2022/01/28 14:44:36;;;;;;;4.65;1.13;;;;;;;;;;5059828;28;20055;-76
2022/01/28 14:47:03;;;;;;;2.78;1.55;;;;;;;;;;5062966;28;20068;-76
2022/01/28 14:49:29;;;;;;;7.15;1.42;;;;;;;;;;5060002;28;20040;-76
2022/01/28 14:51:59;;;;;;;4.65;1.63;;;;;;;;;;5058455;28;20039;-76
2022/01/28 14:54:27;;;;;;;6.00;2.13;;;;;;;;;;5061018;28;20058;-75
2022/01/28 14:56:57;;;;;;;5.25;2.28;;;;;;;;;;5061436;28;20079;-73
2022/01/28 14:59:23;;;;;;;9.70;2.08;;;;;;;;;;5060386;28;20564;-74
2022/01/28 15:01:49;;;;;;;3.42;1.50;;;;;;;;;;5076957;28;20044;-75
2022/01/28 15:04:15;;;;;;;4.05;1.55;;;;;;;;;;5059590;28;20583;-74
2022/01/28 15:06:42;;;;;;;1.80;1.35;;;;;;;;;;5059996;28;20405;-74
2022/01/28 15:09:10;;;;;;;4.18;1.58;;;;;;;;;;5074595;28;20028;-73
2022/01/28 15:11:44;;;;;;;7.05;1.80;;;;;;;;;;5049552;28;20051;-73
2022/01/28 15:14:11;;;;;;;2.15;1.33;;;;;;;;;;5062099;28;20512;-74
2022/01/28 15:16:37;;;;;;;5.07;1.75;;;;;;;;;;5061857;28;20550;-73
2022/01/28 15:19:03;;;;;;;1.85;1.35;;;;;;;;;;5061282;28;20040;-73
2022/01/28 15:21:29;;;;;;;6.28;1.30;;;;;;;;;;5061959;28;20124;-73
2022/01/28 15:23:54;;;;;;;0.98;0.98;;;;;;;;;;5062428;28;20134;-72
2022/01/28 15:26:20;;;;;;;3.65;2.30;;;;;;;;;;5062840;28;20044;-73
2022/01/28 15:28:59;;;;;;;6.03;1.58;;;;;;;;;;5062675;28;20040;-73
2022/01/28 15:34:18;;;;;;;4.03;1.67;;;;;;;;;;5061390;28;20064;-72
2022/01/28 15:36:44;;;;;;;10.27;2.92;;;;;;;;;;5062289;28;20032;-72
2022/01/28 15:39:09;;;;;;;3.30;1.50;;;;;;;;;;5062512;28;20024;-72
2022/01/28 15:41:35;;;;;;;6.15;1.70;;;;;;;;;;5061964;28;20037;-70
2022/01/28 15:44:00;;;;;;;2.67;1.13;;;;;;;;;;5062188;28;20462;-72
2022/01/28 15:46:25;;;;;;;7.03;2.10;;;;;;;;;;5062259;28;20460;-70
2022/01/28 15:48:51;;;;;;;3.42;1.58;;;;;;;;;;5061909;28;20464;-72
2022/01/28 15:51:17;;;;;;;3.25;1.38;;;;;;;;;;5078051;28;20042;-71
2022/01/28 15:53:42;;;;;;;0.90;0.90;;;;;;;;;;5061882;28;20035;-71
2022/01/28 15:56:09;;;;;;;1.85;1.23;;;;;;;;;;5060133;28;20036;-72
2022/01/28 15:58:35;;;;;;;1.70;1.60;;;;;;;;;;5062150;28;20070;-72
2022/01/28 16:01:00;;;;;;;8.23;3.40;;;;;;;;;;5060573;28;20029;-73
2022/01/28 16:03:26;;;;;;;3.10;1.70;;;;;;;;;;5062407;28;20098;-71
2022/01/28 16:05:51;;;;;;;4.03;1.77;;;;;;;;;;5061675;28;20040;-72
2022/01/28 16:08:17;;;;;;;7.15;1.95;;;;;;;;;;5062218;28;20032;-70
2022/01/28 16:11:01;;;;;;;2.45;1.40;;;;;;;;;;5060424;28;20130;-71
2022/01/28 16:13:53;;;;;;;2.30;2.00;;;;;;;;;;5062297;28;20032;-73
2022/01/28 16:19:03;;;;;;;1.20;1.10;;;;;;;;;;5060265;28;20413;-71
2022/01/28 16:21:29;;;;;;;10.60;1.70;;;;;;;;;;5059566;28;20545;-71
2022/01/28 16:23:58;;;;;;;5.32;2.40;;;;;;;;;;5061083;28;20047;-72
2022/01/28 16:26:25;;;;;;;3.80;2.00;;;;;;;;;;5059701;28;20068;-72
2022/01/28 16:28:50;;;;;;;1.95;1.75;;;;;;;;;;5057991;28;20078;-71
2022/01/28 16:31:16;;;;;;;3.28;2.00;;;;;;;;;;5060490;28;20040;-71
2022/01/28 16:33:42;;;;;;;8.45;2.13;;;;;;;;;;5059772;28;20765;-71
2022/01/28 16:36:10;;;;;;;9.25;2.03;;;;;;;;;;5060650;28;20037;-72
2022/01/28 16:38:36;;;;;;;5.45;2.28;;;;;;;;;;5060095;28;20102;-71
2022/01/28 16:41:06;;;;;;;2.60;1.92;;;;;;;;;;5059103;28;20048;-71